PWSweather.com
Personal Weather Stations
Station Observations
ANTHEMNP
Anthem North Parkside, Anthem, AZ 85086

Anthem North ParksideAnthem, AZ 85086

Lat: 33.876464, Lon: -112.13861199999997

Elevation: 1930

Station Type: Davis Vantage Vue with Pro 2 console

http://www.azjerry.com/ANPW/wxindex.php

High Low Average
Temperature 89.0°F31.7°C 57.0°F13.9°C 72.0°F22.2°C
Dew Point 21.9°F-5.6°C 11.0°F-11.7°C 15.9°F-8.9°C
Winds 6.9 mph 11.1 kmh Calm Calm 2.0 mph SE3.2 kmh SE
Wind Gusts 9.2 mph14.8 kmh -- 2.0 mph3.2 kmh
Humidity 17% 8% 12%
Pressure 27.89 in944.5 mb 27.71 in938.4 mb -
Precipitation 0.00 in0.0 mm - -
Hour Temp Dew Point Humidity Winds Wind Gusts Pressure Precip Precip Rate Daily Precip Total
12:00 AM 60.1°F15.6°C 12.2°F-11.0°C 15% Calm Calm -- 27.89 in944.5 mb - 0.00 in0.0 mm 0.00 in0.0 mm
12:10 AM 59.5°F15.3°C 13.2°F-10.4°C 16% Calm Calm -- 27.89 in944.5 mb - 0.00 in0.0 mm 0.00 in0.0 mm
12:15 AM 58.1°F14.5°C 13.4°F-10.3°C 17% Calm Calm -- 27.89 in944.5 mb - 0.00 in0.0 mm 0.00 in0.0 mm
12:20 AM 58.9°F14.9°C 12.7°F-10.7°C 16% Calm Calm -- 27.89 in944.5 mb - 0.00 in0.0 mm 0.00 in0.0 mm
12:25 AM 59.2°F15.1°C 11.5°F-11.4°C 15% Calm Calm -- 27.89 in944.5 mb - 0.00 in0.0 mm 0.00 in0.0 mm
12:30 AM 59.2°F15.1°C 11.5°F-11.4°C 15% Calm Calm -- 27.89 in944.5 mb - 0.00 in0.0 mm 0.00 in0.0 mm
12:35 AM 59.5°F15.3°C 11.7°F-11.3°C 15% Calm Calm -- 27.89 in944.5 mb - 0.00 in0.0 mm 0.00 in0.0 mm
12:40 AM 59.5°F15.3°C 11.7°F-11.3°C 15% Calm Calm -- 27.89 in944.5 mb - 0.00 in0.0 mm 0.00 in0.0 mm
12:45 AM 59.5°F15.3°C 11.7°F-11.3°C 15% Calm Calm -- 27.89 in944.5 mb - 0.00 in0.0 mm 0.00 in0.0 mm
12:50 AM 59.5°F15.3°C 11.7°F-11.3°C 15% Calm Calm -- 27.89 in944.5 mb - 0.00 in0.0 mm 0.00 in0.0 mm
12:55 AM 59.7°F15.4°C 11.9°F-11.2°C 15% Calm Calm -- 27.88 in944.1 mb - 0.00 in0.0 mm 0.00 in0.0 mm
01:00 AM 59.4°F15.2°C 11.7°F-11.3°C 15% Calm Calm -- 27.88 in944.1 mb - 0.00 in0.0 mm 0.00 in0.0 mm
01:10 AM 58.8°F14.9°C 11.2°F-11.6°C 15% Calm Calm -- 27.88 in944.1 mb - 0.00 in0.0 mm 0.00 in0.0 mm
01:15 AM 58.6°F14.8°C 11.0°F-11.7°C 15% Calm Calm -- 27.88 in944.1 mb - 0.00 in0.0 mm 0.00 in0.0 mm
01:20 AM 59.0°F15.0°C 11.3°F-11.5°C 15% Calm Calm -- 27.88 in944.1 mb - 0.00 in0.0 mm 0.00 in0.0 mm
01:25 AM 59.2°F15.1°C 11.5°F-11.4°C 15% Calm Calm -- 27.88 in944.1 mb - 0.00 in0.0 mm 0.00 in0.0 mm
01:30 AM 59.0°F15.0°C 12.8°F-10.7°C 16% Calm Calm -- 27.87 in943.8 mb - 0.00 in0.0 mm 0.00 in0.0 mm
01:35 AM 59.2°F15.1°C 13.0°F-10.6°C 16% Calm Calm -- 27.87 in943.8 mb - 0.00 in0.0 mm 0.00 in0.0 mm
01:40 AM 59.2°F15.1°C 13.0°F-10.6°C 16% Calm Calm -- 27.87 in943.8 mb - 0.00 in0.0 mm 0.00 in0.0 mm
01:45 AM 59.0°F15.0°C 11.3°F-11.5°C 15% Calm Calm -- 27.87 in943.8 mb - 0.00 in0.0 mm 0.00 in0.0 mm
01:50 AM 59.5°F15.3°C 11.7°F-11.3°C 15% Calm Calm -- 27.87 in943.8 mb - 0.00 in0.0 mm 0.00 in0.0 mm
01:55 AM 60.1°F15.6°C 12.2°F-11.0°C 15% Calm Calm -- 27.87 in943.8 mb - 0.00 in0.0 mm 0.00 in0.0 mm
02:00 AM 60.4°F15.8°C 12.5°F-10.8°C 15% Calm Calm -- 27.87 in943.8 mb - 0.00 in0.0 mm 0.00 in0.0 mm
02:10 AM 60.3°F15.7°C 12.4°F-10.9°C 15% Calm Calm -- 27.87 in943.8 mb - 0.00 in0.0 mm 0.00 in0.0 mm
02:15 AM 60.2°F15.7°C 12.3°F-10.9°C 15% Calm Calm -- 27.87 in943.8 mb - 0.00 in0.0 mm 0.00 in0.0 mm
02:20 AM 59.9°F15.5°C 12.1°F-11.1°C 15% Calm Calm -- 27.87 in943.8 mb - 0.00 in0.0 mm 0.00 in0.0 mm
02:25 AM 59.7°F15.4°C 11.9°F-11.2°C 15% Calm Calm -- 27.87 in943.8 mb - 0.00 in0.0 mm 0.00 in0.0 mm
02:30 AM 59.7°F15.4°C 11.9°F-11.2°C 15% Calm Calm -- 27.87 in943.8 mb - 0.00 in0.0 mm 0.00 in0.0 mm
02:35 AM 59.7°F15.4°C 11.9°F-11.2°C 15% Calm Calm -- 27.87 in943.8 mb - 0.00 in0.0 mm 0.00 in0.0 mm
02:40 AM 60.1°F15.6°C 12.2°F-11.0°C 15% Calm Calm -- 27.87 in943.8 mb - 0.00 in0.0 mm 0.00 in0.0 mm
02:45 AM 60.3°F15.7°C 12.4°F-10.9°C 15% Calm Calm -- 27.87 in943.8 mb - 0.00 in0.0 mm 0.00 in0.0 mm
02:50 AM 60.4°F15.8°C 12.5°F-10.8°C 15% Calm Calm -- 27.87 in943.8 mb - 0.00 in0.0 mm 0.00 in0.0 mm
02:55 AM 60.3°F15.7°C 12.4°F-10.9°C 15% Calm Calm -- 27.87 in943.8 mb - 0.00 in0.0 mm 0.00 in0.0 mm
03:00 AM 59.9°F15.5°C 12.1°F-11.1°C 15% Calm Calm -- 27.87 in943.8 mb - 0.00 in0.0 mm 0.00 in0.0 mm
03:10 AM 59.6°F15.3°C 11.8°F-11.2°C 15% Calm Calm -- 27.88 in944.1 mb - 0.00 in0.0 mm 0.00 in0.0 mm
03:15 AM 59.4°F15.2°C 11.7°F-11.3°C 15% Calm Calm -- 27.87 in943.8 mb - 0.00 in0.0 mm 0.00 in0.0 mm
03:20 AM 59.2°F15.1°C 11.5°F-11.4°C 15% Calm Calm -- 27.87 in943.8 mb - 0.00 in0.0 mm 0.00 in0.0 mm
03:25 AM 60.0°F15.6°C 12.2°F-11.0°C 15% 1.2 mph NE1.9 kmh NE 6.9 mph11.1 kmh 27.87 in943.8 mb - 0.00 in0.0 mm 0.00 in0.0 mm
03:30 AM 60.4°F15.8°C 12.5°F-10.8°C 15% Calm Calm -- 27.87 in943.8 mb - 0.00 in0.0 mm 0.00 in0.0 mm
03:35 AM 60.1°F15.6°C 12.2°F-11.0°C 15% Calm Calm -- 27.87 in943.8 mb - 0.00 in0.0 mm 0.00 in0.0 mm
03:40 AM 59.5°F15.3°C 11.7°F-11.3°C 15% Calm Calm -- 27.87 in943.8 mb - 0.00 in0.0 mm 0.00 in0.0 mm
03:45 AM 59.5°F15.3°C 11.7°F-11.3°C 15% Calm Calm -- 27.87 in943.8 mb - 0.00 in0.0 mm 0.00 in0.0 mm
03:50 AM 59.5°F15.3°C 11.7°F-11.3°C 15% Calm Calm -- 27.87 in943.8 mb - 0.00 in0.0 mm 0.00 in0.0 mm
03:55 AM 59.4°F15.2°C 13.1°F-10.5°C 16% Calm Calm -- 27.86 in943.4 mb - 0.00 in0.0 mm 0.00 in0.0 mm
04:00 AM 59.0°F15.0°C 12.8°F-10.7°C 16% Calm Calm -- 27.86 in943.4 mb - 0.00 in0.0 mm 0.00 in0.0 mm
04:10 AM 59.0°F15.0°C 12.8°F-10.7°C 16% 3.5 mph NNW5.6 kmh NNW 4.6 mph7.4 kmh 27.86 in943.4 mb - 0.00 in0.0 mm 0.00 in0.0 mm
04:15 AM 59.2°F15.1°C 13.0°F-10.6°C 16% 5.8 mph NNE9.3 kmh NNE 6.9 mph11.1 kmh 27.86 in943.4 mb - 0.00 in0.0 mm 0.00 in0.0 mm
04:20 AM 59.4°F15.2°C 13.1°F-10.5°C 16% 4.6 mph N7.4 kmh N 6.9 mph11.1 kmh 27.86 in943.4 mb - 0.00 in0.0 mm 0.00 in0.0 mm
04:25 AM 59.4°F15.2°C 13.1°F-10.5°C 16% 5.8 mph NE9.3 kmh NE 9.2 mph14.8 kmh 27.86 in943.4 mb - 0.00 in0.0 mm 0.00 in0.0 mm
04:30 AM 59.2°F15.1°C 13.0°F-10.6°C 16% 4.6 mph NNW7.4 kmh NNW 6.9 mph11.1 kmh 27.86 in943.4 mb - 0.00 in0.0 mm 0.00 in0.0 mm
04:35 AM 58.7°F14.8°C 12.5°F-10.8°C 16% 5.8 mph NNE9.3 kmh NNE 6.9 mph11.1 kmh 27.86 in943.4 mb - 0.00 in0.0 mm 0.00 in0.0 mm
04:40 AM 58.5°F14.7°C 12.4°F-10.9°C 16% 4.6 mph N7.4 kmh N 4.6 mph7.4 kmh 27.86 in943.4 mb - 0.00 in0.0 mm 0.00 in0.0 mm
04:45 AM 58.3°F14.6°C 12.2°F-11.0°C 16% 4.6 mph NNE7.4 kmh NNE 4.6 mph7.4 kmh 27.86 in943.4 mb - 0.00 in0.0 mm 0.00 in0.0 mm
04:50 AM 58.1°F14.5°C 12.1°F-11.1°C 16% 4.6 mph N7.4 kmh N 5.8 mph9.3 kmh 27.86 in943.4 mb - 0.00 in0.0 mm 0.00 in0.0 mm
04:55 AM 58.1°F14.5°C 12.1°F-11.1°C 16% 5.8 mph NE9.3 kmh NE 5.8 mph9.3 kmh 27.87 in943.8 mb - 0.00 in0.0 mm 0.00 in0.0 mm
05:00 AM 58.5°F14.7°C 12.4°F-10.9°C 16% 3.5 mph NNW5.6 kmh NNW 4.6 mph7.4 kmh 27.87 in943.8 mb - 0.00 in0.0 mm 0.00 in0.0 mm
05:10 AM 58.1°F14.5°C 12.1°F-11.1°C 16% Calm Calm -- 27.86 in943.4 mb - 0.00 in0.0 mm 0.00 in0.0 mm
05:15 AM 57.9°F14.4°C 11.9°F-11.2°C 16% Calm Calm -- 27.86 in943.4 mb - 0.00 in0.0 mm 0.00 in0.0 mm
05:20 AM 57.8°F14.3°C 11.8°F-11.2°C 16% Calm Calm -- 27.86 in943.4 mb - 0.00 in0.0 mm 0.00 in0.0 mm
05:25 AM 57.6°F14.2°C 13.1°F-10.5°C 17% Calm Calm -- 27.86 in943.4 mb - 0.00 in0.0 mm 0.00 in0.0 mm
05:30 AM 57.4°F14.1°C 12.9°F-10.6°C 17% Calm Calm -- 27.86 in943.4 mb - 0.00 in0.0 mm 0.00 in0.0 mm
05:35 AM 57.2°F14.0°C 12.7°F-10.7°C 17% Calm Calm -- 27.86 in943.4 mb - 0.00 in0.0 mm 0.00 in0.0 mm
05:40 AM 57.0°F13.9°C 12.5°F-10.8°C 17% Calm Calm -- 27.86 in943.4 mb - 0.00 in0.0 mm 0.00 in0.0 mm
05:45 AM 57.0°F13.9°C 12.5°F-10.8°C 17% Calm Calm -- 27.86 in943.4 mb - 0.00 in0.0 mm 0.00 in0.0 mm
05:50 AM 57.5°F14.2°C 13.0°F-10.6°C 17% Calm Calm -- 27.86 in943.4 mb - 0.00 in0.0 mm 0.00 in0.0 mm
05:55 AM 57.4°F14.1°C 12.9°F-10.6°C 17% Calm Calm -- 27.86 in943.4 mb - 0.00 in0.0 mm 0.00 in0.0 mm
06:00 AM 57.2°F14.0°C 12.7°F-10.7°C 17% Calm Calm -- 27.86 in943.4 mb - 0.00 in0.0 mm 0.00 in0.0 mm
06:10 AM 57.2°F14.0°C 12.7°F-10.7°C 17% Calm Calm -- 27.86 in943.4 mb - 0.00 in0.0 mm 0.00 in0.0 mm
06:15 AM 57.2°F14.0°C 12.7°F-10.7°C 17% Calm Calm -- 27.87 in943.8 mb - 0.00 in0.0 mm 0.00 in0.0 mm
06:20 AM 57.2°F14.0°C 12.7°F-10.7°C 17% Calm Calm -- 27.87 in943.8 mb - 0.00 in0.0 mm 0.00 in0.0 mm
06:25 AM 57.4°F14.1°C 12.9°F-10.6°C 17% Calm Calm -- 27.87 in943.8 mb - 0.00 in0.0 mm 0.00 in0.0 mm
06:30 AM 57.6°F14.2°C 13.0°F-10.6°C 17% Calm Calm -- 27.86 in943.4 mb - 0.00 in0.0 mm 0.00 in0.0 mm
06:35 AM 57.7°F14.3°C 13.1°F-10.5°C 17% Calm Calm -- 27.86 in943.4 mb - 0.00 in0.0 mm 0.00 in0.0 mm
06:40 AM 58.4°F14.7°C 13.7°F-10.2°C 17% Calm Calm -- 27.87 in943.8 mb - 0.00 in0.0 mm 0.00 in0.0 mm
06:45 AM 59.2°F15.1°C 13.0°F-10.6°C 16% Calm Calm -- 27.87 in943.8 mb - 0.00 in0.0 mm 0.00 in0.0 mm
06:50 AM 59.7°F15.4°C 13.4°F-10.3°C 16% Calm Calm -- 27.87 in943.8 mb - 0.00 in0.0 mm 0.00 in0.0 mm
06:55 AM 59.7°F15.4°C 14.8°F-9.6°C 17% Calm Calm -- 27.87 in943.8 mb - 0.00 in0.0 mm 0.00 in0.0 mm
07:00 AM 60.1°F15.6°C 13.7°F-10.2°C 16% Calm Calm -- 27.87 in943.8 mb - 0.00 in0.0 mm 0.00 in0.0 mm
07:10 AM 61.0°F16.1°C 14.4°F-9.8°C 16% 3.5 mph N5.6 kmh N 3.5 mph5.6 kmh 27.88 in944.1 mb - 0.00 in0.0 mm 0.00 in0.0 mm
07:15 AM 61.4°F16.3°C 14.8°F-9.6°C 16% 4.6 mph NNE7.4 kmh NNE 5.8 mph9.3 kmh 27.88 in944.1 mb - 0.00 in0.0 mm 0.00 in0.0 mm
07:20 AM 62.0°F16.7°C 15.2°F-9.3°C 16% 2.3 mph NNE3.7 kmh NNE 4.6 mph7.4 kmh 27.88 in944.1 mb - 0.00 in0.0 mm 0.00 in0.0 mm
07:25 AM 62.5°F16.9°C 14.2°F-9.9°C 15% 4.6 mph N7.4 kmh N 5.8 mph9.3 kmh 27.88 in944.1 mb - 0.00 in0.0 mm 0.00 in0.0 mm
07:30 AM 63.0°F17.2°C 14.6°F-9.7°C 15% 3.5 mph NNE5.6 kmh NNE 4.6 mph7.4 kmh 27.88 in944.1 mb - 0.00 in0.0 mm 0.00 in0.0 mm
07:35 AM 63.6°F17.6°C 15.0°F-9.4°C 15% 3.5 mph NNE5.6 kmh NNE 4.6 mph7.4 kmh 27.88 in944.1 mb - 0.00 in0.0 mm 0.00 in0.0 mm
07:40 AM 64.6°F18.1°C 15.8°F-9.0°C 15% 4.6 mph NNE7.4 kmh NNE 5.8 mph9.3 kmh 27.88 in944.1 mb - 0.00 in0.0 mm 0.00 in0.0 mm
07:45 AM 65.9°F18.8°C 15.3°F-9.3°C 14% 3.5 mph NNE5.6 kmh NNE 4.6 mph7.4 kmh 27.88 in944.1 mb - 0.00 in0.0 mm 0.00 in0.0 mm
07:50 AM 67.4°F19.7°C 16.5°F-8.6°C 14% 4.6 mph NE7.4 kmh NE 4.6 mph7.4 kmh 27.88 in944.1 mb - 0.00 in0.0 mm 0.00 in0.0 mm
07:55 AM 69.0°F20.6°C 17.8°F-7.9°C 14% 2.3 mph NNE3.7 kmh NNE 3.5 mph5.6 kmh 27.87 in943.8 mb - 0.00 in0.0 mm 0.00 in0.0 mm
08:00 AM 70.2°F21.2°C 17.0°F-8.3°C 13% 3.5 mph N5.6 kmh N 4.6 mph7.4 kmh 27.87 in943.8 mb - 0.00 in0.0 mm 0.00 in0.0 mm
08:10 AM 72.0°F22.2°C 18.4°F-7.6°C 13% 3.5 mph ENE5.6 kmh ENE 4.6 mph7.4 kmh 27.86 in943.4 mb - 0.00 in0.0 mm 0.00 in0.0 mm
08:15 AM 72.9°F22.7°C 17.3°F-8.2°C 12% 2.3 mph NNE3.7 kmh NNE 4.6 mph7.4 kmh 27.86 in943.4 mb - 0.00 in0.0 mm 0.00 in0.0 mm
08:20 AM 73.8°F23.2°C 18.0°F-7.8°C 12% Calm Calm 1.2 mph1.9 kmh 27.86 in943.4 mb - 0.00 in0.0 mm 0.00 in0.0 mm
08:25 AM 74.3°F23.5°C 18.4°F-7.6°C 12% 2.3 mph N3.7 kmh N 1.2 mph1.9 kmh 27.86 in943.4 mb - 0.00 in0.0 mm 0.00 in0.0 mm
08:30 AM 74.7°F23.7°C 18.7°F-7.4°C 12% 1.2 mph NE1.9 kmh NE 2.3 mph3.7 kmh 27.86 in943.4 mb - 0.00 in0.0 mm 0.00 in0.0 mm
08:35 AM 74.2°F23.4°C 18.3°F-7.6°C 12% Calm Calm -- 27.86 in943.4 mb - 0.00 in0.0 mm 0.00 in0.0 mm
08:40 AM 75.1°F23.9°C 19.0°F-7.2°C 12% 1.2 mph SSW1.9 kmh SSW 2.3 mph3.7 kmh 27.87 in943.8 mb - 0.00 in0.0 mm 0.00 in0.0 mm
08:45 AM 75.7°F24.3°C 19.4°F-7.0°C 12% Calm Calm 1.2 mph1.9 kmh 27.87 in943.8 mb - 0.00 in0.0 mm 0.00 in0.0 mm
08:50 AM 77.0°F25.0°C 18.4°F-7.6°C 11% Calm Calm -- 27.87 in943.8 mb - 0.00 in0.0 mm 0.00 in0.0 mm
08:55 AM 77.9°F25.5°C 19.1°F-7.2°C 11% 2.3 mph WNW3.7 kmh WNW 3.5 mph5.6 kmh 27.86 in943.4 mb - 0.00 in0.0 mm 0.00 in0.0 mm
09:00 AM 77.0°F25.0°C 18.4°F-7.6°C 11% 3.5 mph S5.6 kmh S 3.5 mph5.6 kmh 27.86 in943.4 mb - 0.00 in0.0 mm 0.00 in0.0 mm
09:10 AM 78.1°F25.6°C 17.0°F-8.3°C 10% 2.3 mph SSW3.7 kmh SSW 3.5 mph5.6 kmh 27.86 in943.4 mb - 0.00 in0.0 mm 0.00 in0.0 mm
09:15 AM 78.1°F25.6°C 17.0°F-8.3°C 10% 2.3 mph SSW3.7 kmh SSW 2.3 mph3.7 kmh 27.86 in943.4 mb - 0.00 in0.0 mm 0.00 in0.0 mm
09:20 AM 77.8°F25.4°C 16.8°F-8.4°C 10% 3.5 mph SW5.6 kmh SW 4.6 mph7.4 kmh 27.86 in943.4 mb - 0.00 in0.0 mm 0.00 in0.0 mm
09:25 AM 78.4°F25.8°C 17.2°F-8.2°C 10% 3.5 mph S5.6 kmh S 4.6 mph7.4 kmh 27.86 in943.4 mb - 0.00 in0.0 mm 0.00 in0.0 mm
09:30 AM 78.7°F25.9°C 17.5°F-8.1°C 10% 4.6 mph SSW7.4 kmh SSW 4.6 mph7.4 kmh 27.86 in943.4 mb - 0.00 in0.0 mm 0.00 in0.0 mm
09:35 AM 78.6°F25.9°C 17.4°F-8.1°C 10% 2.3 mph S3.7 kmh S 4.6 mph7.4 kmh 27.86 in943.4 mb - 0.00 in0.0 mm 0.00 in0.0 mm
09:40 AM 78.7°F25.9°C 17.5°F-8.1°C 10% 3.5 mph SSE5.6 kmh SSE 5.8 mph9.3 kmh 27.86 in943.4 mb - 0.00 in0.0 mm 0.00 in0.0 mm
09:45 AM 79.1°F26.2°C 17.8°F-7.9°C 10% 2.3 mph SE3.7 kmh SE 3.5 mph5.6 kmh 27.86 in943.4 mb - 0.00 in0.0 mm 0.00 in0.0 mm
09:50 AM 79.7°F26.5°C 18.3°F-7.6°C 10% 3.5 mph W5.6 kmh W 4.6 mph7.4 kmh 27.86 in943.4 mb - 0.00 in0.0 mm 0.00 in0.0 mm
09:55 AM 79.9°F26.6°C 18.4°F-7.6°C 10% 4.6 mph SW7.4 kmh SW 5.8 mph9.3 kmh 27.86 in943.4 mb - 0.00 in0.0 mm 0.00 in0.0 mm
10:00 AM 80.6°F27.0°C 18.9°F-7.3°C 10% Calm Calm 3.5 mph5.6 kmh 27.86 in943.4 mb - 0.00 in0.0 mm 0.00 in0.0 mm
10:10 AM 80.6°F27.0°C 19.0°F-7.2°C 10% 1.2 mph SSE1.9 kmh SSE 2.3 mph3.7 kmh 27.86 in943.4 mb - 0.00 in0.0 mm 0.00 in0.0 mm
10:15 AM 80.6°F27.0°C 19.0°F-7.2°C 10% 3.5 mph SSW5.6 kmh SSW 3.5 mph5.6 kmh 27.86 in943.4 mb - 0.00 in0.0 mm 0.00 in0.0 mm
10:20 AM 82.2°F27.9°C 20.2°F-6.6°C 10% 2.3 mph SSE3.7 kmh SSE 2.3 mph3.7 kmh 27.86 in943.4 mb - 0.00 in0.0 mm 0.00 in0.0 mm
10:25 AM 82.7°F28.2°C 20.6°F-6.3°C 10% 3.5 mph SSE5.6 kmh SSE 5.8 mph9.3 kmh 27.86 in943.4 mb - 0.00 in0.0 mm 0.00 in0.0 mm
10:30 AM 80.9°F27.2°C 19.2°F-7.1°C 10% 3.5 mph SSE5.6 kmh SSE 4.6 mph7.4 kmh 27.86 in943.4 mb - 0.00 in0.0 mm 0.00 in0.0 mm
10:35 AM 81.6°F27.6°C 19.7°F-6.8°C 10% 1.2 mph SSE1.9 kmh SSE 4.6 mph7.4 kmh 27.86 in943.4 mb - 0.00 in0.0 mm 0.00 in0.0 mm
10:40 AM 82.1°F27.8°C 17.6°F-8.0°C 9% 2.3 mph SE3.7 kmh SE 4.6 mph7.4 kmh 27.85 in943.1 mb - 0.00 in0.0 mm 0.00 in0.0 mm
10:45 AM 82.7°F28.2°C 18.1°F-7.7°C 9% 3.5 mph S5.6 kmh S 2.3 mph3.7 kmh 27.85 in943.1 mb - 0.00 in0.0 mm 0.00 in0.0 mm
10:50 AM 82.3°F27.9°C 17.8°F-7.9°C 9% 3.5 mph SSW5.6 kmh SSW 5.8 mph9.3 kmh 27.85 in943.1 mb - 0.00 in0.0 mm 0.00 in0.0 mm
10:55 AM 83.4°F28.6°C 18.6°F-7.4°C 9% Calm Calm 2.3 mph3.7 kmh 27.85 in943.1 mb - 0.00 in0.0 mm 0.00 in0.0 mm
11:00 AM 83.6°F28.7°C 18.8°F-7.3°C 9% 2.3 mph S3.7 kmh S 2.3 mph3.7 kmh 27.85 in943.1 mb - 0.00 in0.0 mm 0.00 in0.0 mm
11:10 AM 83.2°F28.4°C 18.5°F-7.5°C 9% 5.8 mph SE9.3 kmh SE 6.9 mph11.1 kmh 27.84 in942.8 mb - 0.00 in0.0 mm 0.00 in0.0 mm
11:15 AM 83.6°F28.7°C 18.8°F-7.3°C 9% 4.6 mph S7.4 kmh S 5.8 mph9.3 kmh 27.84 in942.8 mb - 0.00 in0.0 mm 0.00 in0.0 mm
11:20 AM 82.8°F28.2°C 18.2°F-7.7°C 9% 2.3 mph S3.7 kmh S 2.3 mph3.7 kmh 27.84 in942.8 mb - 0.00 in0.0 mm 0.00 in0.0 mm
11:25 AM 83.8°F28.8°C 18.9°F-7.3°C 9% 4.6 mph S7.4 kmh S 4.6 mph7.4 kmh 27.84 in942.8 mb - 0.00 in0.0 mm 0.00 in0.0 mm
11:30 AM 82.9°F28.3°C 18.2°F-7.7°C 9% Calm Calm -- 27.84 in942.8 mb - 0.00 in0.0 mm 0.00 in0.0 mm
11:35 AM 84.8°F29.3°C 19.7°F-6.8°C 9% 3.5 mph SSW5.6 kmh SSW 4.6 mph7.4 kmh 27.84 in942.8 mb - 0.00 in0.0 mm 0.00 in0.0 mm
11:40 AM 84.9°F29.4°C 19.7°F-6.8°C 9% 4.6 mph S7.4 kmh S 5.8 mph9.3 kmh 27.83 in942.4 mb - 0.00 in0.0 mm 0.00 in0.0 mm
11:45 AM 84.9°F29.4°C 19.7°F-6.8°C 9% 3.5 mph SSE5.6 kmh SSE 3.5 mph5.6 kmh 27.83 in942.4 mb - 0.00 in0.0 mm 0.00 in0.0 mm
11:50 AM 84.7°F29.3°C 19.6°F-6.9°C 9% 3.5 mph SSE5.6 kmh SSE 3.5 mph5.6 kmh 27.83 in942.4 mb - 0.00 in0.0 mm 0.00 in0.0 mm
11:55 AM 85.1°F29.5°C 19.9°F-6.7°C 9% 3.5 mph S5.6 kmh S 3.5 mph5.6 kmh 27.82 in942.1 mb - 0.00 in0.0 mm 0.00 in0.0 mm
12:00 PM 84.9°F29.4°C 19.8°F-6.8°C 9% 1.2 mph SW1.9 kmh SW 3.5 mph5.6 kmh 27.82 in942.1 mb - 0.00 in0.0 mm 0.00 in0.0 mm
12:10 PM 84.9°F29.4°C 19.7°F-6.8°C 9% 3.5 mph SW5.6 kmh SW 3.5 mph5.6 kmh 27.82 in942.1 mb - 0.00 in0.0 mm 0.00 in0.0 mm
12:15 PM 85.2°F29.6°C 20.0°F-6.7°C 9% 4.6 mph S7.4 kmh S 4.6 mph7.4 kmh 27.82 in942.1 mb - 0.00 in0.0 mm 0.00 in0.0 mm
12:20 PM 85.7°F29.8°C 20.4°F-6.4°C 9% 4.6 mph S7.4 kmh S 5.8 mph9.3 kmh 27.82 in942.1 mb - 0.00 in0.0 mm 0.00 in0.0 mm
12:25 PM 86.3°F30.2°C 20.8°F-6.2°C 9% 5.8 mph SSW9.3 kmh SSW 5.8 mph9.3 kmh 27.82 in942.1 mb - 0.00 in0.0 mm 0.00 in0.0 mm
12:30 PM 86.1°F30.1°C 20.6°F-6.3°C 9% 3.5 mph S5.6 kmh S 3.5 mph5.6 kmh 27.81 in941.8 mb - 0.00 in0.0 mm 0.00 in0.0 mm
12:35 PM 87.1°F30.6°C 21.4°F-5.9°C 9% 4.6 mph SW7.4 kmh SW 5.8 mph9.3 kmh 27.81 in941.8 mb - 0.00 in0.0 mm 0.00 in0.0 mm
12:40 PM 87.2°F30.7°C 21.5°F-5.8°C 9% 3.5 mph SSW5.6 kmh SSW 5.8 mph9.3 kmh 27.81 in941.8 mb - 0.00 in0.0 mm 0.00 in0.0 mm
12:45 PM 87.8°F31.0°C 21.9°F-5.6°C 9% 3.5 mph SSE5.6 kmh SSE 5.8 mph9.3 kmh 27.81 in941.8 mb - 0.00 in0.0 mm 0.00 in0.0 mm
12:50 PM 87.1°F30.6°C 18.6°F-7.4°C 8% 3.5 mph NE5.6 kmh NE 4.6 mph7.4 kmh 27.81 in941.8 mb - 0.00 in0.0 mm 0.00 in0.0 mm
12:55 PM 87.5°F30.8°C 21.7°F-5.7°C 9% 2.3 mph SSE3.7 kmh SSE 5.8 mph9.3 kmh 27.80 in941.4 mb - 0.00 in0.0 mm 0.00 in0.0 mm
01:00 PM 88.3°F31.3°C 19.5°F-6.9°C 8% 5.8 mph SE9.3 kmh SE 8.1 mph13.0 kmh 27.80 in941.4 mb - 0.00 in0.0 mm 0.00 in0.0 mm
01:10 PM 87.7°F30.9°C 19.1°F-7.2°C 8% 3.5 mph W5.6 kmh W 5.8 mph9.3 kmh 27.79 in941.1 mb - 0.00 in0.0 mm 0.00 in0.0 mm
01:15 PM 86.6°F30.3°C 18.3°F-7.6°C 8% 1.2 mph SSW1.9 kmh SSW 1.2 mph1.9 kmh 27.79 in941.1 mb - 0.00 in0.0 mm 0.00 in0.0 mm
01:20 PM 87.4°F30.8°C 18.9°F-7.3°C 8% 5.8 mph SE9.3 kmh SE 5.8 mph9.3 kmh 27.79 in941.1 mb - 0.00 in0.0 mm 0.00 in0.0 mm
01:25 PM 87.9°F31.1°C 19.2°F-7.1°C 8% 2.3 mph S3.7 kmh S 5.8 mph9.3 kmh 27.79 in941.1 mb - 0.00 in0.0 mm 0.00 in0.0 mm
01:30 PM 88.0°F31.1°C 19.3°F-7.1°C 8% 4.6 mph SW7.4 kmh SW 8.1 mph13.0 kmh 27.78 in940.7 mb - 0.00 in0.0 mm 0.00 in0.0 mm
01:35 PM 88.1°F31.2°C 19.4°F-7.0°C 8% 2.3 mph ESE3.7 kmh ESE 3.5 mph5.6 kmh 27.78 in940.7 mb - 0.00 in0.0 mm 0.00 in0.0 mm
01:40 PM 89.0°F31.7°C 20.0°F-6.7°C 8% 4.6 mph S7.4 kmh S 6.9 mph11.1 kmh 27.78 in940.7 mb - 0.00 in0.0 mm 0.00 in0.0 mm
01:45 PM 88.1°F31.2°C 19.4°F-7.0°C 8% 4.6 mph SSE7.4 kmh SSE 8.1 mph13.0 kmh 27.78 in940.7 mb - 0.00 in0.0 mm 0.00 in0.0 mm
01:50 PM 87.0°F30.6°C 18.6°F-7.4°C 8% 6.9 mph SSW11.1 kmh SSW 9.2 mph14.8 kmh 27.78 in940.7 mb - 0.00 in0.0 mm 0.00 in0.0 mm
01:55 PM 86.4°F30.2°C 18.1°F-7.7°C 8% 3.5 mph NNW5.6 kmh NNW 4.6 mph7.4 kmh 27.77 in940.4 mb - 0.00 in0.0 mm 0.00 in0.0 mm
02:00 PM 85.8°F29.9°C 17.7°F-7.9°C 8% 3.5 mph S5.6 kmh S 5.8 mph9.3 kmh 27.77 in940.4 mb - 0.00 in0.0 mm 0.00 in0.0 mm
02:10 PM 86.5°F30.3°C 18.2°F-7.7°C 8% 4.6 mph SW7.4 kmh SW 5.8 mph9.3 kmh 27.77 in940.4 mb - 0.00 in0.0 mm 0.00 in0.0 mm
02:15 PM 86.5°F30.3°C 18.1°F-7.7°C 8% 3.5 mph S5.6 kmh S 6.9 mph11.1 kmh 27.77 in940.4 mb - 0.00 in0.0 mm 0.00 in0.0 mm
02:20 PM 86.3°F30.2°C 18.1°F-7.7°C 8% 1.2 mph S1.9 kmh S 4.6 mph7.4 kmh 27.77 in940.4 mb - 0.00 in0.0 mm 0.00 in0.0 mm
02:25 PM 87.8°F31.0°C 19.1°F-7.2°C 8% 3.5 mph SW5.6 kmh SW 4.6 mph7.4 kmh 27.77 in940.4 mb - 0.00 in0.0 mm 0.00 in0.0 mm
02:30 PM 87.2°F30.7°C 18.7°F-7.4°C 8% 5.8 mph S9.3 kmh S 9.2 mph14.8 kmh 27.76 in940.1 mb - 0.00 in0.0 mm 0.00 in0.0 mm
02:35 PM 86.2°F30.1°C 18.0°F-7.8°C 8% 4.6 mph SSW7.4 kmh SSW 5.8 mph9.3 kmh 27.76 in940.1 mb - 0.00 in0.0 mm 0.00 in0.0 mm
02:40 PM 85.5°F29.7°C 17.4°F-8.1°C 8% 5.8 mph S9.3 kmh S 5.8 mph9.3 kmh 27.76 in940.1 mb - 0.00 in0.0 mm 0.00 in0.0 mm
02:45 PM 84.8°F29.3°C 16.9°F-8.4°C 8% 3.5 mph SSW5.6 kmh SSW 3.5 mph5.6 kmh 27.76 in940.1 mb - 0.00 in0.0 mm 0.00 in0.0 mm
02:50 PM 85.3°F29.6°C 17.3°F-8.2°C 8% 5.8 mph SSW9.3 kmh SSW 6.9 mph11.1 kmh 27.76 in940.1 mb - 0.00 in0.0 mm 0.00 in0.0 mm
02:55 PM 85.3°F29.6°C 20.1°F-6.6°C 9% 4.6 mph S7.4 kmh S 4.6 mph7.4 kmh 27.75 in939.7 mb - 0.00 in0.0 mm 0.00 in0.0 mm
03:00 PM 83.9°F28.8°C 19.0°F-7.2°C 9% 2.3 mph WSW3.7 kmh WSW 2.3 mph3.7 kmh 27.75 in939.7 mb - 0.00 in0.0 mm 0.00 in0.0 mm
03:10 PM 84.3°F29.1°C 19.3°F-7.1°C 9% 3.5 mph SSW5.6 kmh SSW 6.9 mph11.1 kmh 27.75 in939.7 mb - 0.00 in0.0 mm 0.00 in0.0 mm
03:15 PM 84.2°F29.0°C 19.2°F-7.1°C 9% 2.3 mph WNW3.7 kmh WNW 3.5 mph5.6 kmh 27.75 in939.7 mb - 0.00 in0.0 mm 0.00 in0.0 mm
03:20 PM 83.8°F28.8°C 18.9°F-7.3°C 9% 2.3 mph W3.7 kmh W 4.6 mph7.4 kmh 27.75 in939.7 mb - 0.00 in0.0 mm 0.00 in0.0 mm
03:25 PM 84.1°F28.9°C 19.1°F-7.2°C 9% 3.5 mph SW5.6 kmh SW 4.6 mph7.4 kmh 27.75 in939.7 mb - 0.00 in0.0 mm 0.00 in0.0 mm
03:30 PM 83.8°F28.8°C 18.9°F-7.3°C 9% 4.6 mph S7.4 kmh S 5.8 mph9.3 kmh 27.74 in939.4 mb - 0.00 in0.0 mm 0.00 in0.0 mm
03:35 PM 83.9°F28.8°C 19.0°F-7.2°C 9% Calm Calm -- 27.74 in939.4 mb - 0.00 in0.0 mm 0.00 in0.0 mm
03:40 PM 84.2°F29.0°C 19.2°F-7.1°C 9% 3.5 mph SW5.6 kmh SW 5.8 mph9.3 kmh 27.73 in939.0 mb - 0.00 in0.0 mm 0.00 in0.0 mm
03:45 PM 83.9°F28.8°C 19.0°F-7.2°C 9% 4.6 mph SW7.4 kmh SW 5.8 mph9.3 kmh 27.73 in939.0 mb - 0.00 in0.0 mm 0.00 in0.0 mm
03:50 PM 83.7°F28.7°C 18.8°F-7.3°C 9% 5.8 mph SW9.3 kmh SW 5.8 mph9.3 kmh 27.73 in939.0 mb - 0.00 in0.0 mm 0.00 in0.0 mm
03:55 PM 83.5°F28.6°C 18.7°F-7.4°C 9% 1.2 mph SW1.9 kmh SW 3.5 mph5.6 kmh 27.73 in939.0 mb - 0.00 in0.0 mm 0.00 in0.0 mm
04:00 PM 83.8°F28.8°C 18.9°F-7.3°C 9% 4.6 mph SW7.4 kmh SW 5.8 mph9.3 kmh 27.73 in939.0 mb - 0.00 in0.0 mm 0.00 in0.0 mm
04:10 PM 84.0°F28.9°C 19.1°F-7.2°C 9% 2.3 mph SSW3.7 kmh SSW 3.5 mph5.6 kmh 27.73 in939.0 mb - 0.00 in0.0 mm 0.00 in0.0 mm
04:15 PM 84.0°F28.9°C 19.1°F-7.2°C 9% 4.6 mph SW7.4 kmh SW 4.6 mph7.4 kmh 27.73 in939.0 mb - 0.00 in0.0 mm 0.00 in0.0 mm
04:19 PM 83.7°F28.7°C 18.8°F-7.3°C 9% 3.5 mph SSW5.6 kmh SSW 3.5 mph5.6 kmh 27.73 in939.0 mb - 0.00 in0.0 mm 0.00 in0.0 mm
04:20 PM 83.6°F28.7°C 18.8°F-7.3°C 9% 1.2 mph S1.9 kmh S 3.5 mph5.6 kmh 27.73 in939.0 mb - 0.00 in0.0 mm 0.00 in0.0 mm
04:25 PM 83.7°F28.7°C 18.8°F-7.3°C 9% 2.3 mph SW3.7 kmh SW 1.2 mph1.9 kmh 27.73 in939.0 mb - 0.00 in0.0 mm 0.00 in0.0 mm
04:30 PM 83.4°F28.6°C 18.6°F-7.4°C 9% 3.5 mph SW5.6 kmh SW 5.8 mph9.3 kmh 27.72 in938.7 mb - 0.00 in0.0 mm 0.00 in0.0 mm
04:35 PM 83.2°F28.4°C 18.5°F-7.5°C 9% 2.3 mph SSW3.7 kmh SSW 8.1 mph13.0 kmh 27.72 in938.7 mb - 0.00 in0.0 mm 0.00 in0.0 mm
04:40 PM 83.1°F28.4°C 15.7°F-9.1°C 8% 4.6 mph S7.4 kmh S 5.8 mph9.3 kmh 27.71 in938.4 mb - 0.00 in0.0 mm 0.00 in0.0 mm
04:45 PM 83.1°F28.4°C 15.7°F-9.1°C 8% 4.6 mph S7.4 kmh S 5.8 mph9.3 kmh 27.71 in938.4 mb - 0.00 in0.0 mm 0.00 in0.0 mm
04:50 PM 83.2°F28.4°C 15.8°F-9.0°C 8% 4.6 mph SW7.4 kmh SW 5.8 mph9.3 kmh 27.71 in938.4 mb - 0.00 in0.0 mm 0.00 in0.0 mm
04:55 PM 83.0°F28.3°C 15.6°F-9.1°C 8% 1.2 mph SE1.9 kmh SE 4.6 mph7.4 kmh 27.71 in938.4 mb - 0.00 in0.0 mm 0.00 in0.0 mm
05:00 PM 82.6°F28.1°C 15.3°F-9.3°C 8% 1.2 mph SSW1.9 kmh SSW 1.2 mph1.9 kmh 27.71 in938.4 mb - 0.00 in0.0 mm 0.00 in0.0 mm
05:10 PM 82.6°F28.1°C 15.3°F-9.3°C 8% 4.6 mph SSW7.4 kmh SSW 4.6 mph7.4 kmh 27.71 in938.4 mb - 0.00 in0.0 mm 0.00 in0.0 mm
05:15 PM 82.5°F28.1°C 15.2°F-9.3°C 8% 1.2 mph S1.9 kmh S -- 27.71 in938.4 mb - 0.00 in0.0 mm 0.00 in0.0 mm
05:20 PM 82.7°F28.2°C 15.4°F-9.2°C 8% 1.2 mph SW1.9 kmh SW 1.2 mph1.9 kmh 27.71 in938.4 mb - 0.00 in0.0 mm 0.00 in0.0 mm
05:25 PM 82.6°F28.1°C 15.3°F-9.3°C 8% 3.5 mph SSW5.6 kmh SSW 4.6 mph7.4 kmh 27.71 in938.4 mb - 0.00 in0.0 mm 0.00 in0.0 mm
05:30 PM 82.6°F28.1°C 15.3°F-9.3°C 8% 3.5 mph S5.6 kmh S 4.6 mph7.4 kmh 27.71 in938.4 mb - 0.00 in0.0 mm 0.00 in0.0 mm
05:35 PM 82.7°F28.2°C 15.3°F-9.3°C 8% 2.3 mph SW3.7 kmh SW 2.3 mph3.7 kmh 27.71 in938.4 mb - 0.00 in0.0 mm 0.00 in0.0 mm
05:40 PM 82.8°F28.2°C 15.4°F-9.2°C 8% 2.3 mph SW3.7 kmh SW 3.5 mph5.6 kmh 27.72 in938.7 mb - 0.00 in0.0 mm 0.00 in0.0 mm
05:45 PM 82.6°F28.1°C 15.3°F-9.3°C 8% 3.5 mph WSW5.6 kmh WSW 5.8 mph9.3 kmh 27.72 in938.7 mb - 0.00 in0.0 mm 0.00 in0.0 mm
05:50 PM 82.6°F28.1°C 15.3°F-9.3°C 8% Calm Calm 3.5 mph5.6 kmh 27.72 in938.7 mb - 0.00 in0.0 mm 0.00 in0.0 mm
05:55 PM 82.3°F27.9°C 15.1°F-9.4°C 8% 3.5 mph SW5.6 kmh SW 2.3 mph3.7 kmh 27.72 in938.7 mb - 0.00 in0.0 mm 0.00 in0.0 mm
06:00 PM 82.4°F28.0°C 15.1°F-9.4°C 8% 3.5 mph SW5.6 kmh SW 4.6 mph7.4 kmh 27.72 in938.7 mb - 0.00 in0.0 mm 0.00 in0.0 mm
06:10 PM 81.9°F27.7°C 14.8°F-9.6°C 8% 2.3 mph WSW3.7 kmh WSW 3.5 mph5.6 kmh 27.72 in938.7 mb - 0.00 in0.0 mm 0.00 in0.0 mm
06:15 PM 81.7°F27.6°C 14.6°F-9.7°C 8% 2.3 mph WSW3.7 kmh WSW 4.6 mph7.4 kmh 27.72 in938.7 mb - 0.00 in0.0 mm 0.00 in0.0 mm
06:20 PM 81.5°F27.5°C 17.2°F-8.2°C 9% Calm Calm -- 27.72 in938.7 mb - 0.00 in0.0 mm 0.00 in0.0 mm
06:25 PM 81.1°F27.3°C 16.9°F-8.4°C 9% Calm Calm 2.3 mph3.7 kmh 27.72 in938.7 mb - 0.00 in0.0 mm 0.00 in0.0 mm
06:30 PM 80.8°F27.1°C 16.7°F-8.5°C 9% Calm Calm -- 27.71 in938.4 mb - 0.00 in0.0 mm 0.00 in0.0 mm
06:35 PM 80.4°F26.9°C 16.4°F-8.7°C 9% 2.3 mph SSW3.7 kmh SSW 3.5 mph5.6 kmh 27.71 in938.4 mb - 0.00 in0.0 mm 0.00 in0.0 mm
06:40 PM 80.1°F26.7°C 16.1°F-8.8°C 9% Calm Calm 1.2 mph1.9 kmh 27.71 in938.4 mb - 0.00 in0.0 mm 0.00 in0.0 mm
06:45 PM 79.7°F26.5°C 15.8°F-9.0°C 9% 1.2 mph S1.9 kmh S 2.3 mph3.7 kmh 27.71 in938.4 mb - 0.00 in0.0 mm 0.00 in0.0 mm
06:50 PM 79.3°F26.3°C 15.5°F-9.2°C 9% 1.2 mph S1.9 kmh S 1.2 mph1.9 kmh 27.71 in938.4 mb - 0.00 in0.0 mm 0.00 in0.0 mm
06:55 PM 79.0°F26.1°C 15.3°F-9.3°C 9% Calm Calm 1.2 mph1.9 kmh 27.71 in938.4 mb - 0.00 in0.0 mm 0.00 in0.0 mm
07:00 PM 78.6°F25.9°C 15.0°F-9.4°C 9% Calm Calm -- 27.71 in938.4 mb - 0.00 in0.0 mm 0.00 in0.0 mm
07:10 PM 77.8°F25.4°C 16.8°F-8.4°C 10% Calm Calm -- 27.71 in938.4 mb - 0.00 in0.0 mm 0.00 in0.0 mm
07:15 PM 77.5°F25.3°C 16.6°F-8.6°C 10% Calm Calm -- 27.72 in938.7 mb - 0.00 in0.0 mm 0.00 in0.0 mm
07:20 PM 77.4°F25.2°C 16.5°F-8.6°C 10% Calm Calm -- 27.72 in938.7 mb - 0.00 in0.0 mm 0.00 in0.0 mm
07:25 PM 76.8°F24.9°C 16.1°F-8.8°C 10% Calm Calm -- 27.72 in938.7 mb - 0.00 in0.0 mm 0.00 in0.0 mm
07:30 PM 76.3°F24.6°C 15.7°F-9.1°C 10% Calm Calm -- 27.72 in938.7 mb - 0.00 in0.0 mm 0.00 in0.0 mm
07:35 PM 75.7°F24.3°C 15.2°F-9.3°C 10% Calm Calm -- 27.72 in938.7 mb - 0.00 in0.0 mm 0.00 in0.0 mm
07:40 PM 75.4°F24.1°C 15.0°F-9.4°C 10% Calm Calm -- 27.72 in938.7 mb - 0.00 in0.0 mm 0.00 in0.0 mm
07:45 PM 74.8°F23.8°C 14.5°F-9.7°C 10% Calm Calm -- 27.72 in938.7 mb - 0.00 in0.0 mm 0.00 in0.0 mm
07:50 PM 74.2°F23.4°C 14.1°F-9.9°C 10% Calm Calm -- 27.72 in938.7 mb - 0.00 in0.0 mm 0.00 in0.0 mm
07:55 PM 73.4°F23.0°C 17.6°F-8.0°C 12% Calm Calm -- 27.72 in938.7 mb - 0.00 in0.0 mm 0.00 in0.0 mm
08:00 PM 72.9°F22.7°C 17.3°F-8.2°C 12% Calm Calm -- 27.72 in938.7 mb - 0.00 in0.0 mm 0.00 in0.0 mm
08:10 PM 72.1°F22.3°C 16.6°F-8.6°C 12% Calm Calm -- 27.72 in938.7 mb - 0.00 in0.0 mm 0.00 in0.0 mm
08:15 PM 71.3°F21.8°C 16.0°F-8.9°C 12% Calm Calm -- 27.73 in939.0 mb - 0.00 in0.0 mm 0.00 in0.0 mm
08:20 PM 70.9°F21.6°C 17.5°F-8.1°C 13% Calm Calm -- 27.73 in939.0 mb - 0.00 in0.0 mm 0.00 in0.0 mm
08:25 PM 70.0°F21.1°C 18.6°F-7.4°C 14% Calm Calm -- 27.73 in939.0 mb - 0.00 in0.0 mm 0.00 in0.0 mm
08:30 PM 70.0°F21.1°C 18.6°F-7.4°C 14% Calm Calm -- 27.73 in939.0 mb - 0.00 in0.0 mm 0.00 in0.0 mm
08:35 PM 69.6°F20.9°C 16.5°F-8.6°C 13% Calm Calm -- 27.73 in939.0 mb - 0.00 in0.0 mm 0.00 in0.0 mm
08:40 PM 69.3°F20.7°C 16.3°F-8.7°C 13% Calm Calm -- 27.74 in939.4 mb - 0.00 in0.0 mm 0.00 in0.0 mm
08:45 PM 68.5°F20.3°C 15.7°F-9.1°C 13% Calm Calm -- 27.74 in939.4 mb - 0.00 in0.0 mm 0.00 in0.0 mm
08:50 PM 68.4°F20.2°C 15.6°F-9.1°C 13% Calm Calm -- 27.74 in939.4 mb - 0.00 in0.0 mm 0.00 in0.0 mm
08:55 PM 68.0°F20.0°C 17.0°F-8.3°C 14% Calm Calm -- 27.74 in939.4 mb - 0.00 in0.0 mm 0.00 in0.0 mm
09:00 PM 67.8°F19.9°C 16.8°F-8.4°C 14% Calm Calm -- 27.74 in939.4 mb - 0.00 in0.0 mm 0.00 in0.0 mm
09:10 PM 67.2°F19.6°C 16.3°F-8.7°C 14% Calm Calm -- 27.74 in939.4 mb - 0.00 in0.0 mm 0.00 in0.0 mm
09:15 PM 66.8°F19.3°C 16.0°F-8.9°C 14% Calm Calm -- 27.74 in939.4 mb - 0.00 in0.0 mm 0.00 in0.0 mm
09:20 PM 66.5°F19.2°C 15.8°F-9.0°C 14% Calm Calm -- 27.74 in939.4 mb - 0.00 in0.0 mm 0.00 in0.0 mm
09:25 PM 66.2°F19.0°C 18.6°F-7.4°C 16% Calm Calm -- 27.74 in939.4 mb - 0.00 in0.0 mm 0.00 in0.0 mm
09:30 PM 65.6°F18.7°C 16.6°F-8.6°C 15% Calm Calm -- 27.75 in939.7 mb - 0.00 in0.0 mm 0.00 in0.0 mm
09:35 PM 64.8°F18.2°C 16.0°F-8.9°C 15% Calm Calm -- 27.75 in939.7 mb - 0.00 in0.0 mm 0.00 in0.0 mm
09:40 PM 64.8°F18.2°C 16.0°F-8.9°C 15% Calm Calm -- 27.75 in939.7 mb - 0.00 in0.0 mm 0.00 in0.0 mm
09:45 PM 64.9°F18.3°C 16.1°F-8.8°C 15% Calm Calm -- 27.75 in939.7 mb - 0.00 in0.0 mm 0.00 in0.0 mm
09:50 PM 64.6°F18.1°C 15.8°F-9.0°C 15% Calm Calm -- 27.75 in939.7 mb - 0.00 in0.0 mm 0.00 in0.0 mm
09:55 PM 64.6°F18.1°C 15.8°F-9.0°C 15% Calm Calm -- 27.75 in939.7 mb - 0.00 in0.0 mm 0.00 in0.0 mm
10:00 PM 64.9°F18.3°C 17.5°F-8.1°C 16% Calm Calm -- 27.75 in939.7 mb - 0.00 in0.0 mm 0.00 in0.0 mm
10:10 PM 64.4°F18.0°C 17.2°F-8.2°C 16% Calm Calm -- 27.75 in939.7 mb - 0.00 in0.0 mm 0.00 in0.0 mm
10:15 PM 64.1°F17.8°C 16.9°F-8.4°C 16% Calm Calm -- 27.75 in939.7 mb - 0.00 in0.0 mm 0.00 in0.0 mm
10:20 PM 63.7°F17.6°C 16.6°F-8.6°C 16% Calm Calm -- 27.75 in939.7 mb - 0.00 in0.0 mm 0.00 in0.0 mm
10:25 PM 63.7°F17.6°C 15.1°F-9.4°C 15% Calm Calm -- 27.75 in939.7 mb - 0.00 in0.0 mm 0.00 in0.0 mm
10:30 PM 63.9°F17.7°C 15.3°F-9.3°C 15% Calm Calm -- 27.75 in939.7 mb - 0.00 in0.0 mm 0.00 in0.0 mm
10:35 PM 63.9°F17.7°C 15.3°F-9.3°C 15% Calm Calm -- 27.75 in939.7 mb - 0.00 in0.0 mm 0.00 in0.0 mm
10:40 PM 63.7°F17.6°C 15.1°F-9.4°C 15% Calm Calm -- 27.75 in939.7 mb - 0.00 in0.0 mm 0.00 in0.0 mm
10:45 PM 63.9°F17.7°C 15.3°F-9.3°C 15% Calm Calm -- 27.75 in939.7 mb - 0.00 in0.0 mm 0.00 in0.0 mm
10:50 PM 64.0°F17.8°C 13.8°F-10.1°C 14% Calm Calm -- 27.75 in939.7 mb - 0.00 in0.0 mm 0.00 in0.0 mm
10:55 PM 63.9°F17.7°C 13.7°F-10.2°C 14% Calm Calm -- 27.75 in939.7 mb - 0.00 in0.0 mm 0.00 in0.0 mm
11:00 PM 63.9°F17.7°C 13.7°F-10.2°C 14% Calm Calm -- 27.75 in939.7 mb - 0.00 in0.0 mm 0.00 in0.0 mm
11:10 PM 64.2°F17.9°C 13.9°F-10.1°C 14% Calm Calm -- 27.75 in939.7 mb - 0.00 in0.0 mm 0.00 in0.0 mm
11:15 PM 64.2°F17.9°C 13.9°F-10.1°C 14% Calm Calm -- 27.74 in939.4 mb - 0.00 in0.0 mm 0.00 in0.0 mm
11:20 PM 64.4°F18.0°C 14.1°F-9.9°C 14% Calm Calm -- 27.74 in939.4 mb - 0.00 in0.0 mm 0.00 in0.0 mm
11:25 PM 64.8°F18.2°C 14.4°F-9.8°C 14% Calm Calm -- 27.74 in939.4 mb - 0.00 in0.0 mm 0.00 in0.0 mm
11:30 PM 64.9°F18.3°C 16.0°F-8.9°C 15% Calm Calm -- 27.74 in939.4 mb - 0.00 in0.0 mm 0.00 in0.0 mm
11:35 PM 64.9°F18.3°C 16.1°F-8.8°C 15% Calm Calm -- 27.74 in939.4 mb - 0.00 in0.0 mm 0.00 in0.0 mm
11:40 PM 64.8°F18.2°C 14.4°F-9.8°C 14% Calm Calm -- 27.75 in939.7 mb - 0.00 in0.0 mm 0.00 in0.0 mm
11:45 PM 64.9°F18.3°C 14.5°F-9.7°C 14% Calm Calm -- 27.75 in939.7 mb - 0.00 in0.0 mm 0.00 in0.0 mm
11:50 PM 64.9°F18.3°C 14.5°F-9.7°C 14% Calm Calm -- 27.75 in939.7 mb - 0.00 in0.0 mm 0.00 in0.0 mm
11:55 PM 65.1°F18.4°C 14.7°F-9.6°C 14% Calm Calm -- 27.75 in939.7 mb - 0.00 in0.0 mm 0.00 in0.0 mm